Time;durP1;ratioP1;P1;durP2;ratioP2;P2;SDS_P1;SDS_P2;PMS_P1;PMS_P2;Temp;Humidity;BMP_temperature;BMP_pressure;BME280_temperature;BME280_humidity;BME280_pressure;Samples;Min_cycle;Max_cycle;Signal;HPM_P1;HPM_P2
2022/07/19 00:01:39;;;;;;;;;;;;;;;-140.72;100.00;51932.31;5043597;28;19921;-64
2022/07/19 00:04:04;;;;;;;;;;;;;;;-140.72;100.00;51948.53;5054008;28;20397;-65
2022/07/19 00:06:29;;;;;;;;;;;;;;;-140.72;100.00;51968.81;5045846;28;20305;-64
2022/07/19 00:08:54;;;;;;;;;;;;;;;-140.72;100.00;51989.13;5033298;28;19917;-65
2022/07/19 00:11:20;;;;;;;;;;;;;;;-140.72;100.00;51970.84;5036763;28;20266;-65
2022/07/19 00:13:45;;;;;;;;;;;;;;;-140.72;100.00;52003.31;5052502;28;19917;-65
2022/07/19 00:16:11;;;;;;;;;;;;;;;-140.72;100.00;51999.25;5019748;28;19917;-63
2022/07/19 00:18:36;;;;;;;;;;;;;;;-140.72;100.00;51968.81;5016263;28;19917;-64
2022/07/19 00:21:01;;;;;;;;;;;;;;;-140.72;100.00;51966.81;5028787;28;19925;-64
2022/07/19 00:23:27;;;;;;;;;;;;;;;-140.72;100.00;51966.81;5015677;28;20343;-65
2022/07/19 00:25:52;;;;;;;;;;;;;;;-140.72;100.00;52005.34;5046267;28;20389;-64
2022/07/19 00:28:17;;;;;;;;;;;;;;;-140.72;100.00;51995.19;5040364;28;19916;-65
2022/07/19 00:30:42;;;;;;;;;;;;;;;-140.72;100.00;52005.34;5051226;28;19930;-65
2022/07/19 00:33:09;;;;;;;;;;;;;;;-140.72;100.00;51999.25;5034075;28;19963;-65
2022/07/19 00:35:35;;;;;;;;;;;;;;;-140.72;100.00;51981.00;5034050;28;19932;-65
2022/07/19 00:38:05;;;;;;;;;;;;;;;-140.72;100.00;51966.81;5035711;28;19917;-65
2022/07/19 00:40:31;;;;;;;;;;;;;;;-140.72;100.00;51976.94;5047137;28;20040;-65
2022/07/19 00:42:56;;;;;;;;;;;;;;;-140.72;100.00;51966.81;5047618;28;20047;-65
2022/07/19 00:45:22;;;;;;;;;;;;;;;-140.72;100.00;51989.13;5043979;28;19952;-64
2022/07/19 00:47:47;;;;;;;;;;;;;;;-140.72;100.00;52003.31;5019307;28;20015;-64
2022/07/19 00:50:12;;;;;;;;;;;;;;;-140.72;100.00;52001.28;5033252;28;19917;-64
2022/07/19 00:52:38;;;;;;;;;;;;;;;-140.72;100.00;51985.06;5037425;28;20285;-65
2022/07/19 00:55:04;;;;;;;;;;;;;;;-140.72;100.00;51987.09;5043604;28;19924;-65
2022/07/19 00:57:30;;;;;;;;;;;;;;;-140.72;100.00;52017.53;5015866;28;19959;-65
2022/07/19 00:59:56;;;;;;;;;;;;;;;-140.72;100.00;51997.22;5035338;28;20388;-65
2022/07/19 01:02:22;;;;;;;;;;;;;;;-140.72;100.00;52017.53;5037745;28;19917;-65
2022/07/19 01:04:48;;;;;;;;;;;;;;;-140.72;100.00;51997.22;5041911;28;20083;-65
2022/07/19 01:07:13;;;;;;;;;;;;;;;-140.72;100.00;52021.56;5053190;28;19933;-66
2022/07/19 01:09:41;;;;;;;;;;;;;;;-140.72;100.00;51970.84;5057801;28;20305;-65
2022/07/19 01:12:06;;;;;;;;;;;;;;;-140.72;100.00;51995.19;5050852;28;19917;-65
2022/07/19 01:14:32;;;;;;;;;;;;;;;-140.72;100.00;51989.13;5054982;28;19948;-65
2022/07/19 01:16:58;;;;;;;;;;;;;;;-140.72;100.00;51999.25;5047585;28;20348;-64
2022/07/19 01:19:24;;;;;;;;;;;;;;;-140.72;100.00;52001.28;5037382;28;19917;-64
2022/07/19 01:21:49;;;;;;;;;;;;;;;-140.72;100.00;52009.41;5036923;28;19968;-64
2022/07/19 01:24:14;;;;;;;;;;;;;;;-140.72;100.00;52009.41;5041381;28;20296;-65
2022/07/19 01:26:39;;;;;;;;;;;;;;;-140.72;100.00;51995.19;5043970;28;20003;-65
2022/07/19 01:29:04;;;;;;;;;;;;;;;-140.72;100.00;52005.34;5047527;28;19924;-65
2022/07/19 01:31:30;;;;;;;;;;;;;;;-140.72;100.00;51985.06;5043508;28;20276;-65
2022/07/19 01:33:55;;;;;;;;;;;;;;;-140.72;100.00;52031.72;5040440;28;20405;-66
2022/07/19 01:36:20;;;;;;;;;;;;;;;-140.72;100.00;52019.56;5052858;28;20010;-65
2022/07/19 01:38:45;;;;;;;;;;;;;;;-140.72;100.00;52039.84;5024759;28;19933;-65
2022/07/19 01:41:10;;;;;;;;;;;;;;;-140.72;100.00;52009.41;5053411;28;19917;-66
2022/07/19 01:43:36;;;;;;;;;;;;;;;-140.72;100.00;52017.53;5019175;28;19956;-65
2022/07/19 01:46:01;;;;;;;;;;;;;;;-140.72;100.00;52009.41;5052904;28;19979;-64
2022/07/19 01:48:27;;;;;;;;;;;;;;;-140.72;100.00;52078.38;5045374;28;19917;-64
2022/07/19 01:50:52;;;;;;;;;;;;;;;-140.72;100.00;52031.72;5050076;28;19917;-65
2022/07/19 01:53:17;;;;;;;;;;;;;;;-140.72;100.00;51995.19;5051199;28;19917;-65
2022/07/19 01:55:42;;;;;;;;;;;;;;;-140.72;100.00;52033.75;5043014;28;20011;-64
2022/07/19 01:58:07;;;;;;;;;;;;;;;-140.72;100.00;52021.56;5047740;28;19924;-66
2022/07/19 02:00:33;;;;;;;;;;;;;;;-140.72;100.00;52060.13;5052649;28;20366;-65
2022/07/19 02:02:58;;;;;;;;;;;;;;;-140.72;100.00;52035.78;5038419;28;19917;-66
2022/07/19 02:05:23;;;;;;;;;;;;;;;-140.72;100.00;52017.53;5022394;28;20405;-64
2022/07/19 02:07:48;;;;;;;;;;;;;;;-140.72;100.00;52054.03;5033341;28;19928;-64
2022/07/19 02:10:14;;;;;;;;;;;;;;;-140.72;100.00;52021.56;5054126;28;20385;-64
2022/07/19 02:12:39;;;;;;;;;;;;;;;-140.72;100.00;52062.16;5023334;28;20043;-64
2022/07/19 02:15:05;;;;;;;;;;;;;;;-140.72;100.00;52025.63;5045536;28;20007;-66
2022/07/19 02:17:30;;;;;;;;;;;;;;;-140.72;100.00;52033.75;5040151;28;19947;-66
2022/07/19 02:19:55;;;;;;;;;;;;;;;-140.72;100.00;52037.81;5044119;28;19963;-64
2022/07/19 02:22:22;;;;;;;;;;;;;;;-140.72;100.00;52045.94;5040600;28;19922;-64
2022/07/19 02:24:47;;;;;;;;;;;;;;;-140.72;100.00;52039.84;5051719;28;19925;-65
2022/07/19 02:27:12;;;;;;;;;;;;;;;-140.72;100.00;52052.00;5054306;28;19917;-65
2022/07/19 02:29:38;;;;;;;;;;;;;;;-140.72;100.00;52084.47;5043269;28;19917;-64
2022/07/19 02:32:03;;;;;;;;;;;;;;;-140.72;100.00;52027.66;5024068;28;19917;-64
2022/07/19 02:34:28;;;;;;;;;;;;;;;-140.72;100.00;52054.03;5034168;22;20150;-66
2022/07/19 02:36:54;;;;;;;;;;;;;;;-140.72;100.00;52029.69;5000883;28;19972;-65
2022/07/19 02:39:19;;;;;;;;;;;;;;;-140.72;100.00;52049.97;5009421;28;20385;-65
2022/07/19 02:41:45;;;;;;;;;;;;;;;-140.72;100.00;52049.97;4992686;28;20434;-65
2022/07/19 02:44:10;;;;;;;;;;;;;;;-140.72;100.00;52021.56;5004696;28;19918;-66
2022/07/19 02:46:35;;;;;;;;;;;;;;;-140.72;100.00;52062.16;5013607;28;19972;-65
2022/07/19 02:49:00;;;;;;;;;;;;;;;-140.72;100.00;52066.22;4986647;28;20398;-65
2022/07/19 02:51:25;;;;;;;;;;;;;;;-140.72;100.00;52078.38;5014043;28;19967;-66
2022/07/19 02:53:51;;;;;;;;;;;;;;;-140.72;100.00;52062.16;4996597;28;20336;-65
2022/07/19 02:56:16;;;;;;;;;;;;;;;-140.72;100.00;52062.16;5014487;28;19917;-65
2022/07/19 02:58:42;;;;;;;;;;;;;;;-140.72;100.00;52056.06;5004262;28;19918;-65
2022/07/19 03:01:07;;;;;;;;;;;;;;;-140.72;100.00;52066.22;5012496;28;19941;-65
2022/07/19 03:03:45;;;;;;;;;;;;;;;-140.72;100.00;52025.63;5014134;28;19960;-65
2022/07/19 03:06:11;;;;;;;;;;;;;;;-140.72;100.00;52047.97;5001828;28;20076;-65
2022/07/19 03:08:36;;;;;;;;;;;;;;;-140.72;100.00;52011.44;5013952;28;19976;-65
2022/07/19 03:11:02;;;;;;;;;;;;;;;-140.72;100.00;52064.19;5014191;28;19921;-65
2022/07/19 03:13:27;;;;;;;;;;;;;;;-140.72;100.00;52056.06;5013715;28;20367;-65
2022/07/19 03:15:52;;;;;;;;;;;;;;;-140.72;100.00;52058.09;5014247;28;19925;-64
2022/07/19 03:18:18;;;;;;;;;;;;;;;-140.72;100.00;52054.03;5013618;28;20375;-64
2022/07/19 03:20:43;;;;;;;;;;;;;;;-140.72;100.00;52011.44;5014095;28;19968;-64
2022/07/19 03:23:08;;;;;;;;;;;;;;;-140.72;100.00;52070.28;5014076;28;20370;-64
2022/07/19 03:25:33;;;;;;;;;;;;;;;-140.72;100.00;52094.63;4990902;28;19924;-64
2022/07/19 03:27:58;;;;;;;;;;;;;;;-140.72;100.00;52068.25;5006212;28;19918;-64
2022/07/19 03:30:24;;;;;;;;;;;;;;;-140.72;100.00;52047.97;5013930;28;19963;-65
2022/07/19 03:32:49;;;;;;;;;;;;;;;-140.72;100.00;52080.41;5013798;28;20374;-65
2022/07/19 03:35:14;;;;;;;;;;;;;;;-140.72;100.00;52070.28;5013898;28;20393;-65
2022/07/19 03:37:39;;;;;;;;;;;;;;;-140.72;100.00;52066.22;4996134;28;19917;-64
2022/07/19 03:40:05;;;;;;;;;;;;;;;-140.72;100.00;52058.09;4995910;28;19979;-65
2022/07/19 03:42:30;;;;;;;;;;;;;;;-140.72;100.00;52031.72;4996171;28;19921;-65
2022/07/19 03:44:56;;;;;;;;;;;;;;;-140.72;100.00;52094.63;5013234;28;19924;-66
2022/07/19 03:47:21;;;;;;;;;;;;;;;-140.72;100.00;52092.59;4995282;28;19925;-65
2022/07/19 03:49:46;;;;;;;;;;;;;;;-140.72;100.00;52078.38;5004294;28;19917;-65
2022/07/19 03:52:12;;;;;;;;;;;;;;;-140.72;100.00;52082.44;4989439;28;19917;-65
2022/07/19 03:54:37;;;;;;;;;;;;;;;-140.72;100.00;52092.59;5010681;28;20020;-65
2022/07/19 03:57:02;;;;;;;;;;;;;;;-140.72;100.00;52080.41;5015073;28;20405;-65
2022/07/19 03:59:27;;;;;;;;;;;;;;;-140.72;100.00;52082.44;4995111;28;19918;-65
2022/07/19 04:01:52;;;;;;;;;;;;;;;-140.72;100.00;52068.25;5013090;28;19954;-65
2022/07/19 04:04:17;;;;;;;;;;;;;;;-140.72;100.00;52064.19;5012874;28;19964;-65
2022/07/19 04:06:43;;;;;;;;;;;;;;;-140.72;100.00;52054.03;5012755;28;19922;-66
2022/07/19 04:09:08;;;;;;;;;;;;;;;-140.72;100.00;52062.16;5012109;28;20000;-66
2022/07/19 04:11:33;;;;;;;;;;;;;;;-140.72;100.00;52096.66;5013296;28;19917;-65
2022/07/19 04:13:58;;;;;;;;;;;;;;;-140.72;100.00;52052.00;5013284;28;19961;-65
2022/07/19 04:16:24;;;;;;;;;;;;;;;-140.72;100.00;52068.25;5013084;28;19960;-65
2022/07/19 04:18:49;;;;;;;;;;;;;;;-140.72;100.00;52094.63;5012485;28;20392;-65
2022/07/19 04:21:14;;;;;;;;;;;;;;;-140.72;100.00;52068.25;5013250;28;19954;-66
2022/07/19 04:23:39;;;;;;;;;;;;;;;-140.72;100.00;52052.00;5012775;28;19917;-65
2022/07/19 04:26:04;;;;;;;;;;;;;;;-140.72;100.00;52082.44;5013205;28;19963;-65
2022/07/19 04:28:30;;;;;;;;;;;;;;;-140.72;100.00;52056.06;5012985;28;19960;-65
2022/07/19 04:30:55;;;;;;;;;;;;;;;-140.72;100.00;52074.34;5013147;28;19918;-65
2022/07/19 04:33:20;;;;;;;;;;;;;;;-140.72;100.00;52078.38;5002169;28;19922;-65
2022/07/19 04:35:45;;;;;;;;;;;;;;;-140.72;100.00;52047.97;5004226;28;20363;-65
2022/07/19 04:38:11;;;;;;;;;;;;;;;-140.72;100.00;52080.41;5013396;28;19918;-65
2022/07/19 04:40:36;;;;;;;;;;;;;;;-140.72;100.00;52080.41;5015358;28;19927;-65
2022/07/19 04:43:01;;;;;;;;;;;;;;;-140.72;100.00;52078.38;5016984;28;19965;-65
2022/07/19 04:45:27;;;;;;;;;;;;;;;-140.72;100.00;52043.91;5016239;28;19917;-65
2022/07/19 04:47:53;;;;;;;;;;;;;;;-140.72;100.00;52070.28;5017261;28;20321;-65
2022/07/19 04:50:18;;;;;;;;;;;;;;;-140.72;100.00;52056.06;5006087;28;19972;-74
2022/07/19 04:52:43;;;;;;;;;;;;;;;-140.72;100.00;52066.22;5012779;28;19968;-76
2022/07/19 04:55:09;;;;;;;;;;;;;;;-140.72;100.00;52047.97;5001912;28;19987;-75
2022/07/19 04:57:34;;;;;;;;;;;;;;;-140.72;100.00;52086.50;5010493;28;20017;-73
2022/07/19 04:59:59;;;;;;;;;;;;;;;-140.72;100.00;52033.75;5004307;28;19918;-77
2022/07/19 05:02:24;;;;;;;;;;;;;;;-140.72;100.00;52019.56;5008853;28;19917;-80
2022/07/19 05:04:49;;;;;;;;;;;;;;;-140.72;100.00;52027.66;5025761;28;19963;-83
2022/07/19 05:07:15;;;;;;;;;;;;;;;-140.72;100.00;52072.31;5003924;28;19917;-82
2022/07/19 05:09:40;;;;;;;;;;;;;;;-140.72;100.00;52037.81;4998465;28;19921;-83
2022/07/19 05:12:07;;;;;;;;;;;;;;;-140.72;100.00;52066.22;5007835;28;19972;-78
2022/07/19 05:14:32;;;;;;;;;;;;;;;-140.72;100.00;52033.75;5014030;28;19968;-79
2022/07/19 05:16:58;;;;;;;;;;;;;;;-140.72;100.00;52074.34;5002817;28;19917;-80
2022/07/19 05:19:23;;;;;;;;;;;;;;;-140.72;100.00;52052.00;5000761;28;19924;-72
2022/07/19 05:21:48;;;;;;;;;;;;;;;-140.72;100.00;52015.50;5002065;28;19994;-78
2022/07/19 05:24:14;;;;;;;;;;;;;;;-140.72;100.00;52068.25;5000350;28;19917;-80
2022/07/19 05:26:39;;;;;;;;;;;;;;;-140.72;100.00;52015.50;5018243;28;19921;-84
2022/07/19 05:29:05;;;;;;;;;;;;;;;-140.72;100.00;51997.22;5020990;28;20394;-79
2022/07/19 05:31:30;;;;;;;;;;;;;;;-140.72;100.00;52043.91;5005884;28;19926;-81
2022/07/19 05:33:55;;;;;;;;;;;;;;;-140.72;100.00;52082.44;4998444;28;19998;-80
2022/07/19 05:36:20;;;;;;;;;;;;;;;-140.72;100.00;52019.56;5018125;28;19918;-73
2022/07/19 05:38:46;;;;;;;;;;;;;;;-140.72;100.00;52021.56;5002090;28;20420;-67
2022/07/19 05:41:11;;;;;;;;;;;;;;;-140.72;100.00;52035.78;5005676;28;20244;-64
2022/07/19 05:43:37;;;;;;;;;;;;;;;-140.72;100.00;51995.19;5015627;28;19948;-64
2022/07/19 05:46:03;;;;;;;;;;;;;;;-140.72;100.00;52005.34;5014882;28;20027;-64
2022/07/19 05:48:29;;;;;;;;;;;;;;;-140.72;100.00;52023.59;5015717;28;19918;-64
2022/07/19 05:50:54;;;;;;;;;;;;;;;-140.72;100.00;52029.69;5003330;28;20405;-64
2022/07/19 05:53:19;;;;;;;;;;;;;;;-140.72;100.00;51993.19;5015914;28;19929;-64
2022/07/19 05:55:45;;;;;;;;;;;;;;;-140.72;100.00;51989.13;5016194;28;19932;-63
2022/07/19 05:58:10;;;;;;;;;;;;;;;-140.72;100.00;52005.34;5015085;28;19917;-64
2022/07/19 06:00:35;;;;;;;;;;;;;;;-140.72;100.00;51999.25;5015660;28;19917;-64
2022/07/19 06:03:00;;;;;;;;;;;;;;;-140.72;100.00;51985.06;5015953;28;20393;-64
2022/07/19 06:05:26;;;;;;;;;;;;;;;-140.72;100.00;52003.31;4999325;28;19967;-64
2022/07/19 06:07:51;;;;;;;;;;;;;;;-140.72;100.00;51995.19;5016085;28;19921;-64
2022/07/19 06:10:16;;;;;;;;;;;;;;;-140.72;100.00;51974.91;5015675;28;20003;-64
2022/07/19 06:12:42;;;;;;;;;;;;;;;-140.72;100.00;51970.84;5002869;28;20045;-64
2022/07/19 06:15:07;;;;;;;;;;;;;;;-140.72;100.00;51985.06;5015422;28;19924;-67
2022/07/19 06:17:32;;;;;;;;;;;;;;;-140.72;100.00;51976.94;5018969;28;19924;-67
2022/07/19 06:19:58;;;;;;;;;;;;;;;-140.72;100.00;51956.66;5017051;28;19984;-65
2022/07/19 06:22:23;;;;;;;;;;;;;;;-140.72;100.00;51948.53;4998513;28;20440;-65
2022/07/19 06:24:48;;;;;;;;;;;;;;;-140.72;100.00;51962.75;5007190;28;19917;-65
2022/07/19 06:27:14;;;;;;;;;;;;;;;-140.72;100.00;51976.94;5011933;28;19967;-65
2022/07/19 06:29:39;;;;;;;;;;;;;;;-140.72;100.00;51932.31;5015409;28;19921;-65
2022/07/19 06:32:04;;;;;;;;;;;;;;;-140.72;100.00;51940.41;5015210;28;20008;-65
2022/07/19 06:34:29;;;;;;;;;;;;;;;-140.72;100.00;51912.03;5015092;28;19983;-65
2022/07/19 06:36:54;;;;;;;;;;;;;;;-140.72;100.00;51942.44;5002083;28;19917;-64
2022/07/19 06:39:20;;;;;;;;;;;;;;;-140.72;100.00;51938.41;5015337;28;19917;-65
2022/07/19 06:41:46;;;;;;;;;;;;;;;-140.72;100.00;51956.66;5013038;28;19921;-65
2022/07/19 06:44:11;;;;;;;;;;;;;;;-140.72;100.00;51940.41;5015453;28;20532;-65
2022/07/19 06:46:36;;;;;;;;;;;;;;;-140.72;100.00;51914.03;5007523;28;20016;-65
2022/07/19 06:49:02;;;;;;;;;;;;;;;-140.72;100.00;51928.25;5015610;28;19921;-65
2022/07/19 06:51:27;;;;;;;;;;;;;;;-140.72;100.00;51895.78;5015467;28;19917;-64
2022/07/19 06:53:52;;;;;;;;;;;;;;;-140.72;100.00;51887.66;5015582;28;20032;-64
2022/07/19 06:56:17;;;;;;;;;;;;;;;-140.72;100.00;51887.66;5002254;28;19917;-64
2022/07/19 06:58:42;;;;;;;;;;;;;;;-140.72;100.00;51912.03;5014720;28;19921;-64
2022/07/19 07:01:08;;;;;;;;;;;;;;;-140.72;100.00;51867.38;5016034;28;19922;-65
2022/07/19 07:03:33;;;;;;;;;;;;;;;-140.72;100.00;51869.41;5014489;28;20396;-65
2022/07/19 07:05:58;;;;;;;;;;;;;;;-140.72;100.00;51897.81;4986924;28;19918;-66
2022/07/19 07:08:23;;;;;;;;;;;;;;;-140.72;100.00;51855.22;5019711;28;19923;-66
2022/07/19 07:10:49;;;;;;;;;;;;;;;-140.72;100.00;51879.56;5017831;28;19924;-67
2022/07/19 07:13:14;;;;;;;;;;;;;;;-140.72;100.00;51891.72;5014616;28;19931;-66
2022/07/19 07:15:42;;;;;;;;;;;;;;;-140.72;100.00;51883.63;5019243;28;20008;-67
2022/07/19 07:18:07;;;;;;;;;;;;;;;-140.72;100.00;51867.38;5016550;28;19925;-67
2022/07/19 07:20:34;;;;;;;;;;;;;;;-140.72;100.00;51883.63;5019428;28;19921;-66
2022/07/19 07:22:59;;;;;;;;;;;;;;;-140.72;100.00;51859.28;5018296;28;19992;-67
2022/07/19 07:25:24;;;;;;;;;;;;;;;-140.72;100.00;51849.13;5018936;28;19957;-67
2022/07/19 07:27:49;;;;;;;;;;;;;;;-140.72;100.00;51869.41;5017420;28;20004;-65
2022/07/19 07:30:14;;;;;;;;;;;;;;;-140.72;100.00;51853.19;5017718;28;19918;-66
2022/07/19 07:32:40;;;;;;;;;;;;;;;-140.72;100.00;51841.00;5020692;28;19918;-66
2022/07/19 07:35:08;;;;;;;;;;;;;;;-140.72;100.00;51855.22;5019364;28;19922;-66
2022/07/19 07:37:33;;;;;;;;;;;;;;;-140.72;100.00;51798.41;5018582;28;20378;-67
2022/07/19 07:39:59;;;;;;;;;;;;;;;-140.72;100.00;51828.84;5014267;28;19924;-66
2022/07/19 07:42:25;;;;;;;;;;;;;;;-140.72;100.00;51857.25;5006806;28;19925;-67
2022/07/19 07:44:50;;;;;;;;;;;;;;;-140.72;100.00;51841.00;5019493;28;19918;-67
2022/07/19 07:47:15;;;;;;;;;;;;;;;-140.72;100.00;51814.63;5015327;28;19924;-67
2022/07/19 07:49:40;;;;;;;;;;;;;;;-140.72;100.00;51800.44;5015441;28;19921;-70
2022/07/19 07:52:07;;;;;;;;;;;;;;;-140.72;100.00;51792.31;5015581;28;20005;-68
2022/07/19 07:54:33;;;;;;;;;;;;;;;-140.72;100.00;51847.09;4997402;28;19929;-66
2022/07/19 07:56:58;;;;;;;;;;;;;;;-140.72;100.00;51834.91;5018021;28;19917;-66
2022/07/19 07:59:23;;;;;;;;;;;;;;;-140.72;100.00;51796.38;5015961;28;19972;-70
2022/07/19 08:01:48;;;;;;;;;;;;;;;-140.72;100.00;51794.34;5009151;28;20008;-68
2022/07/19 08:04:14;;;;;;;;;;;;;;;-140.72;100.00;51782.16;5016359;28;19917;-66
2022/07/19 08:06:39;;;;;;;;;;;;;;;-140.72;100.00;51763.91;5017385;28;20420;-67
2022/07/19 08:09:05;;;;;;;;;;;;;;;-140.72;100.00;51772.03;5015489;28;19922;-67
2022/07/19 08:11:30;;;;;;;;;;;;;;;-140.72;100.00;51733.47;5010858;28;19926;-66
2022/07/19 08:13:55;;;;;;;;;;;;;;;-140.72;100.00;51747.69;5014662;28;19924;-65
2022/07/19 08:16:21;;;;;;;;;;;;;;;-140.72;100.00;51763.91;4995503;28;19976;-65
2022/07/19 08:18:46;;;;;;;;;;;;;;;-140.72;100.00;51703.06;5013608;28;19925;-66
2022/07/19 08:21:12;;;;;;;;;;;;;;;-140.72;100.00;51741.59;5012450;28;19928;-64
2022/07/19 08:23:39;;;;;;;;;;;;;;;-140.72;100.00;51721.31;4991581;28;20333;-65
2022/07/19 08:26:05;;;;;;;;;;;;;;;-140.72;100.00;51727.41;5004116;28;19917;-65
2022/07/19 08:28:30;;;;;;;;;;;;;;;-140.72;100.00;51721.31;5010919;28;20374;-65
2022/07/19 08:30:55;;;;;;;;;;;;;;;-140.72;100.00;51688.84;4995398;28;20565;-65
2022/07/19 08:33:20;;;;;;;;;;;;;;;-140.72;100.00;51670.59;4998439;28;19921;-65
2022/07/19 08:35:45;;;;;;;;;;;;;;;-140.72;100.00;51684.78;4975446;28;19956;-65
2022/07/19 08:38:11;;;;;;;;;;;;;;;-140.72;100.00;51656.38;4974995;28;20383;-65
2022/07/19 08:40:39;;;;;;;;;;;;;;;-140.72;100.00;51668.56;4981792;28;20387;-64
2022/07/19 08:43:04;;;;;;;;;;;;;;;-140.72;100.00;51682.75;4980506;28;19918;-65
2022/07/19 08:45:30;;;;;;;;;;;;;;;-140.72;100.00;51640.16;4983019;28;19921;-65
2022/07/19 08:47:56;;;;;;;;;;;;;;;-140.72;100.00;51666.53;5006251;28;20330;-65
2022/07/19 08:50:22;;;;;;;;;;;;;;;-140.72;100.00;51672.63;4963510;28;19924;-65
2022/07/19 08:52:47;;;;;;;;;;;;;;;-140.72;100.00;51611.75;4993832;28;20451;-65
2022/07/19 08:55:12;;;;;;;;;;;;;;;-140.72;100.00;51638.13;4986195;28;19921;-65
2022/07/19 09:00:21;;;;;;;;;;;;;;;-140.72;100.00;51603.63;4995313;28;19960;-65
2022/07/19 09:02:57;;;;;;;;;;;;;;;-140.72;100.00;51579.28;4998321;28;19947;-65
2022/07/19 09:05:22;;;;;;;;;;;;;;;-140.72;100.00;51571.19;4995832;28;20318;-65
2022/07/19 09:08:05;;;;;;;;;;;;;;;-140.72;100.00;51542.78;4975995;28;19925;-65
2022/07/19 09:10:32;;;;;;;;;;;;;;;-140.72;100.00;51546.84;4996737;28;19929;-65
2022/07/19 09:13:14;;;;;;;;;;;;;;;-140.72;100.00;51575.25;4977219;28;20346;-64
2022/07/19 09:15:47;;;;;;;;;;;;;;;-140.72;100.00;51532.63;4980378;28;19925;-65
2022/07/19 09:18:20;;;;;;;;;;;;;;;-140.72;100.00;51512.34;4991580;28;19925;-65
2022/07/19 09:20:46;;;;;;;;;;;;;;;-140.72;100.00;51504.25;4993782;28;20279;-65
2022/07/19 09:23:12;;;;;;;;;;;;;;;-140.72;100.00;51481.91;4998568;28;19940;-66
2022/07/19 09:25:41;;;;;;;;;;;;;;;-140.72;100.00;51498.16;4989117;28;19918;-66
2022/07/19 09:28:08;;;;;;;;;;;;;;;-140.72;100.00;51498.16;4990727;28;19925;-65
2022/07/19 09:30:43;;;;;;;;;;;;;;;-140.72;100.00;51459.59;4991044;28;20390;-65
2022/07/19 09:33:10;;;;;;;;;;;;;;;-140.72;100.00;51461.63;4977075;28;19928;-65
2022/07/19 09:35:37;;;;;;;;;;;;;;;-140.72;100.00;51447.44;5015505;28;19917;-65
2022/07/19 09:38:15;;;;;;;;;;;;;;;-140.72;100.00;51425.13;5017009;28;19917;-65
2022/07/19 09:40:40;;;;;;;;;;;;;;;-140.72;100.00;51372.38;5005273;28;19918;-66
2022/07/19 09:43:05;;;;;;;;;;;;;;;-140.72;100.00;51380.50;5003900;28;20060;-63
2022/07/19 09:45:32;;;;;;;;;;;;;;;-140.72;100.00;51372.38;5016016;28;20433;-65
2022/07/19 09:47:58;;;;;;;;;;;;;;;-140.72;100.00;51358.19;5009545;28;19918;-63
2022/07/19 09:50:24;;;;;;;;;;;;;;;-140.72;100.00;51309.50;5009546;28;19917;-63
2022/07/19 09:52:51;;;;;;;;;;;;;;;-140.72;100.00;51335.88;5009563;28;20397;-65
2022/07/19 09:55:17;;;;;;;;;;;;;;;-140.72;100.00;51293.25;5009540;28;19983;-66
2022/07/19 09:57:44;;;;;;;;;;;;;;;-140.72;100.00;51285.16;5016589;28;19921;-64
2022/07/19 10:00:11;;;;;;;;;;;;;;;-140.72;100.00;51275.00;4996343;28;19918;-64
2022/07/19 10:02:37;;;;;;;;;;;;;;;-140.72;92.41;51283.13;5010756;28;20378;-64
2022/07/19 10:05:03;;;;;;;;;;;;;;;-140.72;98.51;51244.56;5017290;28;19976;-64
2022/07/19 10:07:28;;;;;;;;;;;;;;;-140.72;100.00;51279.06;4992470;28;19922;-63
2022/07/19 10:09:54;;;;;;;;;;;;;;;-140.72;97.36;51268.91;5018298;28;19932;-64
2022/07/19 10:12:20;;;;;;;;;;;;;;;-140.72;100.00;51295.28;5007632;28;19917;-64
2022/07/19 10:14:46;;;;;;;;;;;;;;;-140.72;96.23;51272.97;5006669;28;19918;-64
2022/07/19 10:17:11;;;;;;;;;;;;;;;-140.72;100.00;51260.81;5014384;28;19921;-64
2022/07/19 10:19:43;;;;;;;;;;;;;;;-140.72;100.00;51224.28;5015002;28;19917;-64
2022/07/19 10:22:10;;;;;;;;;;;;;;;-140.72;83.41;51183.72;5015083;28;20294;-65
2022/07/19 10:24:42;;;;;;;;;;;;;;;-140.72;90.87;51226.31;5015192;28;19988;-65
2022/07/19 10:27:08;;;;;;;;;;;;;;;-140.72;100.00;51222.25;5009163;28;19961;-64
2022/07/19 10:29:33;;;;;;;;;;;;;;;-140.72;87.30;51159.38;5015468;28;20275;-65
2022/07/19 10:32:03;;;;;;;;;;;;;;;-140.72;81.71;51153.28;4999117;28;19924;-64
2022/07/19 10:34:28;;;;;;;;;;;;;;;-140.72;86.22;51163.44;4987256;28;19957;-65
2022/07/19 10:36:54;;;;;;;;;;;;;;;-140.72;88.39;51173.56;5014981;28;20057;-66
2022/07/19 10:39:35;;;;;;;;;;;;;;;-140.72;80.44;51116.78;5015675;28;19922;-64
2022/07/19 10:42:03;;;;;;;;;;;;;;;-140.72;71.86;51090.41;5014599;28;19921;-65
2022/07/19 10:44:28;;;;;;;;;;;;;;;-140.72;74.84;51100.56;5003014;28;19933;-66
2022/07/19 10:46:53;;;;;;;;;;;;;;;-140.72;62.21;51057.97;5014169;28;19921;-66
2022/07/19 10:49:37;;;;;;;;;;;;;;;-140.72;75.43;51096.50;5014694;28;19917;-65
2022/07/19 10:52:21;;;;;;;;;;;;;;;-140.72;70.25;51049.84;5009831;28;19921;-66
2022/07/19 10:54:46;;;;;;;;;;;;;;;-140.72;66.64;51055.94;5011054;28;19980;-66
2022/07/19 10:57:11;;;;;;;;;;;;;;;-140.72;71.99;51068.09;5006166;28;19922;-66
2022/07/19 10:59:40;;;;;;;;;;;;;;;-140.72;66.93;51102.59;4996472;28;19918;-66
2022/07/19 11:02:06;;;;;;;;;;;;;;;-140.72;77.66;51070.13;5004480;28;19918;-66
2022/07/19 11:04:33;;;;;;;;;;;;;;;-140.72;62.71;51068.09;5012882;28;19922;-66
2022/07/19 11:07:13;;;;;;;;;;;;;;;-140.72;68.83;51015.34;5014433;28;19917;-66
2022/07/19 11:09:40;;;;;;;;;;;;;;;-140.72;61.53;50991.03;4997025;28;19918;-65
2022/07/19 11:12:19;;;;;;;;;;;;;;;-140.72;49.59;50946.41;5008478;28;19917;-66
2022/07/19 11:14:44;;;;;;;;;;;;;;;-140.72;52.87;50970.72;4986557;28;19918;-66
2022/07/19 11:17:10;;;;;;;;;;;;;;;-140.72;55.94;50984.94;4983450;28;19918;-66
2022/07/19 11:19:35;;;;;;;;;;;;;;;-140.72;50.22;51009.28;4995719;28;19925;-64
2022/07/19 11:22:01;;;;;;;;;;;;;;;-140.72;59.38;51003.19;4992287;28;19988;-63
2022/07/19 11:24:26;;;;;;;;;;;;;;;-140.72;50.54;51003.19;5014819;28;20008;-65
2022/07/19 11:26:51;;;;;;;;;;;;;;;-140.72;55.62;51005.22;5001066;28;19968;-64
2022/07/19 11:29:16;;;;;;;;;;;;;;;-140.72;55.00;51076.22;5014778;28;19925;-65
2022/07/19 11:31:46;;;;;;;;;;;;;;;-140.72;62.30;51163.44;5001449;28;19917;-64
2022/07/19 11:34:11;;;;;;;;;;;;;;;-140.72;66.46;51080.28;5014554;28;19949;-65
2022/07/19 11:36:37;;;;;;;;;;;;;;;-140.72;56.65;51110.69;4994780;28;19918;-65
2022/07/19 11:39:03;;;;;;;;;;;;;;;-140.72;60.24;51106.63;4986150;28;20367;-64
2022/07/19 11:41:29;;;;;;;;;;;;;;;-140.72;59.50;51078.25;5013057;28;19918;-65
2022/07/19 11:44:00;;;;;;;;;;;;;;;-140.72;60.58;51051.88;5003493;28;19972;-64
2022/07/19 11:46:29;;;;;;;;;;;;;;;-140.72;56.22;51027.53;4995981;28;20334;-65
2022/07/19 11:49:04;;;;;;;;;;;;;;;-140.72;54.56;51027.53;5000737;28;19917;-65
2022/07/19 11:51:31;;;;;;;;;;;;;;;-140.72;53.35;50964.66;5013807;28;20004;-65
2022/07/19 11:53:58;;;;;;;;;;;;;;;-140.72;51.10;50976.81;5013774;28;20285;-64
2022/07/19 11:56:25;;;;;;;;;;;;;;;-140.72;47.06;50934.22;5009163;28;19918;-64
2022/07/19 11:58:51;;;;;;;;;;;;;;;-140.72;45.91;50934.22;5004706;28;19992;-65
2022/07/19 12:01:22;;;;;;;;;;;;;;;-140.72;49.88;50982.91;5005869;28;20355;-65
2022/07/19 12:04:03;;;;;;;;;;;;;;;-140.72;48.42;50901.78;5013086;28;19922;-66
2022/07/19 12:06:36;;;;;;;;;;;;;;;-140.72;48.91;50899.75;4989844;28;20322;-67
2022/07/19 12:09:06;;;;;;;;;;;;;;;-140.72;50.28;50907.84;5014000;28;20003;-65
2022/07/19 12:11:37;;;;;;;;;;;;;;;-140.72;50.40;50964.66;5013641;28;19922;-66
2022/07/19 12:14:15;;;;;;;;;;;;;;;-140.72;48.27;50863.22;5013920;28;19921;-65
2022/07/19 12:16:40;;;;;;;;;;;;;;;-140.72;47.64;50865.25;4995495;28;19917;-66